sensor_id;sensor_type;location;lat;lon;timestamp;P1;durP1;ratioP1;P2;durP2;ratioP2
56122;SDS011;42426;46.104;19.656;2023-02-21T00:02:13;26.50;;;18.23;;
56122;SDS011;42426;46.104;19.656;2023-02-21T00:04:57;26.13;;;16.30;;
56122;SDS011;42426;46.104;19.656;2023-02-21T00:07:41;22.70;;;13.45;;
56122;SDS011;42426;46.104;19.656;2023-02-21T00:10:25;21.52;;;14.10;;
56122;SDS011;42426;46.104;19.656;2023-02-21T00:15:54;22.30;;;15.23;;
56122;SDS011;42426;46.104;19.656;2023-02-21T00:18:39;21.25;;;12.57;;
56122;SDS011;42426;46.104;19.656;2023-02-21T00:21:23;23.17;;;13.90;;
56122;SDS011;42426;46.104;19.656;2023-02-21T00:24:14;20.20;;;14.00;;
56122;SDS011;42426;46.104;19.656;2023-02-21T00:27:00;24.20;;;13.85;;
56122;SDS011;42426;46.104;19.656;2023-02-21T00:29:45;21.88;;;13.45;;
56122;SDS011;42426;46.104;19.656;2023-02-21T00:32:31;24.23;;;13.90;;
56122;SDS011;42426;46.104;19.656;2023-02-21T00:35:15;22.77;;;14.68;;
56122;SDS011;42426;46.104;19.656;2023-02-21T00:38:00;24.98;;;15.10;;
56122;SDS011;42426;46.104;19.656;2023-02-21T00:43:28;27.50;;;15.57;;
56122;SDS011;42426;46.104;19.656;2023-02-21T00:46:17;26.63;;;15.40;;
56122;SDS011;42426;46.104;19.656;2023-02-21T00:49:01;29.50;;;16.83;;
56122;SDS011;42426;46.104;19.656;2023-02-21T00:51:46;29.00;;;16.80;;
56122;SDS011;42426;46.104;19.656;2023-02-21T00:54:31;22.15;;;14.68;;
56122;SDS011;42426;46.104;19.656;2023-02-21T00:57:16;24.38;;;14.95;;
56122;SDS011;42426;46.104;19.656;2023-02-21T01:00:00;28.42;;;15.10;;
56122;SDS011;42426;46.104;19.656;2023-02-21T01:02:45;22.33;;;13.55;;
56122;SDS011;42426;46.104;19.656;2023-02-21T01:05:29;21.40;;;13.13;;
56122;SDS011;42426;46.104;19.656;2023-02-21T01:08:13;26.00;;;15.43;;
56122;SDS011;42426;46.104;19.656;2023-02-21T01:10:58;55.88;;;27.90;;
56122;SDS011;42426;46.104;19.656;2023-02-21T01:13:42;39.72;;;22.77;;
56122;SDS011;42426;46.104;19.656;2023-02-21T01:16:29;37.63;;;20.63;;
56122;SDS011;42426;46.104;19.656;2023-02-21T01:19:16;32.70;;;20.45;;
56122;SDS011;42426;46.104;19.656;2023-02-21T01:22:03;34.83;;;20.80;;
56122;SDS011;42426;46.104;19.656;2023-02-21T01:24:49;26.25;;;17.48;;
56122;SDS011;42426;46.104;19.656;2023-02-21T01:27:33;35.42;;;17.63;;
56122;SDS011;42426;46.104;19.656;2023-02-21T01:30:18;29.45;;;17.63;;
56122;SDS011;42426;46.104;19.656;2023-02-21T01:33:02;30.58;;;17.70;;
56122;SDS011;42426;46.104;19.656;2023-02-21T01:35:46;28.23;;;16.63;;
56122;SDS011;42426;46.104;19.656;2023-02-21T01:38:33;24.40;;;14.75;;
56122;SDS011;42426;46.104;19.656;2023-02-21T01:41:18;27.42;;;14.60;;
56122;SDS011;42426;46.104;19.656;2023-02-21T01:44:05;29.38;;;15.90;;
56122;SDS011;42426;46.104;19.656;2023-02-21T01:47:10;30.90;;;16.38;;
56122;SDS011;42426;46.104;19.656;2023-02-21T01:49:55;23.98;;;14.35;;
56122;SDS011;42426;46.104;19.656;2023-02-21T01:52:41;28.90;;;16.08;;
56122;SDS011;42426;46.104;19.656;2023-02-21T01:55:25;20.92;;;14.57;;
56122;SDS011;42426;46.104;19.656;2023-02-21T01:58:09;24.40;;;16.08;;
56122;SDS011;42426;46.104;19.656;2023-02-21T02:00:54;29.13;;;17.23;;
56122;SDS011;42426;46.104;19.656;2023-02-21T02:03:38;28.77;;;17.50;;
56122;SDS011;42426;46.104;19.656;2023-02-21T02:06:24;27.67;;;16.23;;
56122;SDS011;42426;46.104;19.656;2023-02-21T02:09:19;28.25;;;17.27;;
56122;SDS011;42426;46.104;19.656;2023-02-21T02:36:40;24.95;;;15.45;;
56122;SDS011;42426;46.104;19.656;2023-02-21T02:39:23;27.38;;;16.23;;
56122;SDS011;42426;46.104;19.656;2023-02-21T02:44:41;27.30;;;16.88;;
56122;SDS011;42426;46.104;19.656;2023-02-21T02:47:39;26.85;;;17.05;;
56122;SDS011;42426;46.104;19.656;2023-02-21T02:50:09;33.95;;;16.73;;
56122;SDS011;42426;46.104;19.656;2023-02-21T02:52:36;29.35;;;16.92;;
56122;SDS011;42426;46.104;19.656;2023-02-21T02:55:04;24.83;;;16.02;;
56122;SDS011;42426;46.104;19.656;2023-02-21T02:57:48;24.25;;;15.90;;
56122;SDS011;42426;46.104;19.656;2023-02-21T03:00:15;28.13;;;17.92;;
56122;SDS011;42426;46.104;19.656;2023-02-21T03:05:38;29.75;;;16.67;;
56122;SDS011;42426;46.104;19.656;2023-02-21T03:08:15;29.20;;;16.17;;
56122;SDS011;42426;46.104;19.656;2023-02-21T03:11:08;28.50;;;16.55;;
56122;SDS011;42426;46.104;19.656;2023-02-21T03:16:32;30.83;;;17.30;;
56122;SDS011;42426;46.104;19.656;2023-02-21T03:19:19;27.20;;;16.52;;
56122;SDS011;42426;46.104;19.656;2023-02-21T03:21:57;25.77;;;16.10;;
56122;SDS011;42426;46.104;19.656;2023-02-21T03:24:26;33.08;;;16.73;;
56122;SDS011;42426;46.104;19.656;2023-02-21T03:26:56;28.38;;;16.05;;
56122;SDS011;42426;46.104;19.656;2023-02-21T03:29:26;25.07;;;14.83;;
56122;SDS011;42426;46.104;19.656;2023-02-21T03:31:57;26.67;;;14.90;;
56122;SDS011;42426;46.104;19.656;2023-02-21T03:34:39;31.10;;;17.13;;
56122;SDS011;42426;46.104;19.656;2023-02-21T03:37:07;25.23;;;14.65;;
56122;SDS011;42426;46.104;19.656;2023-02-21T03:39:34;25.25;;;14.75;;
56122;SDS011;42426;46.104;19.656;2023-02-21T03:42:00;25.75;;;15.98;;
56122;SDS011;42426;46.104;19.656;2023-02-21T03:44:26;28.30;;;16.45;;
56122;SDS011;42426;46.104;19.656;2023-02-21T03:46:51;22.70;;;13.98;;
56122;SDS011;42426;46.104;19.656;2023-02-21T03:49:17;30.00;;;15.85;;
56122;SDS011;42426;46.104;19.656;2023-02-21T03:51:43;23.15;;;14.40;;
56122;SDS011;42426;46.104;19.656;2023-02-21T03:54:09;29.80;;;15.23;;
56122;SDS011;42426;46.104;19.656;2023-02-21T03:56:34;25.13;;;13.80;;
56122;SDS011;42426;46.104;19.656;2023-02-21T03:59:00;24.73;;;15.00;;
56122;SDS011;42426;46.104;19.656;2023-02-21T04:01:26;22.33;;;14.70;;
56122;SDS011;42426;46.104;19.656;2023-02-21T04:03:51;25.92;;;15.40;;
56122;SDS011;42426;46.104;19.656;2023-02-21T04:06:17;24.60;;;14.55;;
56122;SDS011;42426;46.104;19.656;2023-02-21T04:08:43;25.48;;;14.07;;
56122;SDS011;42426;46.104;19.656;2023-02-21T04:11:08;23.90;;;14.65;;
56122;SDS011;42426;46.104;19.656;2023-02-21T04:13:34;23.80;;;14.40;;
56122;SDS011;42426;46.104;19.656;2023-02-21T04:16:01;24.85;;;15.38;;
56122;SDS011;42426;46.104;19.656;2023-02-21T04:18:26;22.23;;;14.25;;
56122;SDS011;42426;46.104;19.656;2023-02-21T04:20:52;24.83;;;14.63;;
56122;SDS011;42426;46.104;19.656;2023-02-21T04:23:18;26.13;;;16.10;;
56122;SDS011;42426;46.104;19.656;2023-02-21T04:25:46;24.33;;;15.35;;
56122;SDS011;42426;46.104;19.656;2023-02-21T04:28:12;26.23;;;15.02;;
56122;SDS011;42426;46.104;19.656;2023-02-21T04:30:38;24.67;;;14.35;;
56122;SDS011;42426;46.104;19.656;2023-02-21T04:33:04;23.15;;;15.70;;
56122;SDS011;42426;46.104;19.656;2023-02-21T04:35:30;28.35;;;15.93;;
56122;SDS011;42426;46.104;19.656;2023-02-21T04:37:55;26.83;;;17.42;;
56122;SDS011;42426;46.104;19.656;2023-02-21T04:40:21;29.90;;;17.60;;
56122;SDS011;42426;46.104;19.656;2023-02-21T04:42:47;24.90;;;16.42;;
56122;SDS011;42426;46.104;19.656;2023-02-21T04:45:12;25.58;;;16.42;;
56122;SDS011;42426;46.104;19.656;2023-02-21T04:47:38;24.15;;;16.15;;
56122;SDS011;42426;46.104;19.656;2023-02-21T04:50:04;25.08;;;14.98;;
56122;SDS011;42426;46.104;19.656;2023-02-21T04:52:30;25.63;;;16.67;;
56122;SDS011;42426;46.104;19.656;2023-02-21T04:54:56;23.75;;;14.32;;
56122;SDS011;42426;46.104;19.656;2023-02-21T04:57:22;22.63;;;15.07;;
56122;SDS011;42426;46.104;19.656;2023-02-21T04:59:48;21.85;;;13.48;;
56122;SDS011;42426;46.104;19.656;2023-02-21T05:02:20;21.42;;;13.38;;
56122;SDS011;42426;46.104;19.656;2023-02-21T05:04:45;25.48;;;14.50;;
56122;SDS011;42426;46.104;19.656;2023-02-21T05:07:11;23.67;;;13.90;;
56122;SDS011;42426;46.104;19.656;2023-02-21T05:09:37;24.85;;;15.38;;
56122;SDS011;42426;46.104;19.656;2023-02-21T05:12:02;25.92;;;15.77;;
56122;SDS011;42426;46.104;19.656;2023-02-21T05:14:35;25.58;;;16.30;;
56122;SDS011;42426;46.104;19.656;2023-02-21T05:17:04;26.23;;;15.90;;
56122;SDS011;42426;46.104;19.656;2023-02-21T05:19:29;26.92;;;16.58;;
56122;SDS011;42426;46.104;19.656;2023-02-21T05:21:56;24.67;;;14.85;;
56122;SDS011;42426;46.104;19.656;2023-02-21T05:24:23;24.48;;;15.50;;
56122;SDS011;42426;46.104;19.656;2023-02-21T05:26:50;29.13;;;16.42;;
56122;SDS011;42426;46.104;19.656;2023-02-21T05:29:16;32.33;;;18.88;;
56122;SDS011;42426;46.104;19.656;2023-02-21T05:31:42;28.40;;;17.42;;
56122;SDS011;42426;46.104;19.656;2023-02-21T05:34:08;32.67;;;19.65;;
56122;SDS011;42426;46.104;19.656;2023-02-21T05:36:34;29.73;;;17.20;;
56122;SDS011;42426;46.104;19.656;2023-02-21T05:39:01;27.48;;;16.60;;
56122;SDS011;42426;46.104;19.656;2023-02-21T05:41:27;32.28;;;17.50;;
56122;SDS011;42426;46.104;19.656;2023-02-21T05:43:52;23.67;;;14.93;;
56122;SDS011;42426;46.104;19.656;2023-02-21T05:46:19;25.35;;;14.60;;
56122;SDS011;42426;46.104;19.656;2023-02-21T05:48:46;24.30;;;15.18;;
56122;SDS011;42426;46.104;19.656;2023-02-21T05:51:11;23.98;;;14.85;;
56122;SDS011;42426;46.104;19.656;2023-02-21T05:53:38;22.60;;;13.35;;
56122;SDS011;42426;46.104;19.656;2023-02-21T05:56:03;27.88;;;17.73;;
56122;SDS011;42426;46.104;19.656;2023-02-21T05:58:30;26.63;;;15.88;;
56122;SDS011;42426;46.104;19.656;2023-02-21T06:00:56;28.20;;;17.13;;
56122;SDS011;42426;46.104;19.656;2023-02-21T06:03:22;27.83;;;16.55;;
56122;SDS011;42426;46.104;19.656;2023-02-21T06:05:47;29.00;;;16.98;;
56122;SDS011;42426;46.104;19.656;2023-02-21T06:08:13;26.73;;;16.30;;
56122;SDS011;42426;46.104;19.656;2023-02-21T06:10:38;28.88;;;17.23;;
56122;SDS011;42426;46.104;19.656;2023-02-21T06:13:04;33.35;;;18.75;;
56122;SDS011;42426;46.104;19.656;2023-02-21T06:15:30;26.48;;;16.45;;
56122;SDS011;42426;46.104;19.656;2023-02-21T06:17:55;29.17;;;18.35;;
56122;SDS011;42426;46.104;19.656;2023-02-21T06:20:21;33.78;;;18.95;;
56122;SDS011;42426;46.104;19.656;2023-02-21T06:22:47;29.23;;;17.33;;
56122;SDS011;42426;46.104;19.656;2023-02-21T06:25:13;26.60;;;16.27;;
56122;SDS011;42426;46.104;19.656;2023-02-21T06:27:39;29.88;;;17.15;;
56122;SDS011;42426;46.104;19.656;2023-02-21T06:30:05;27.75;;;17.05;;
56122;SDS011;42426;46.104;19.656;2023-02-21T06:32:31;29.63;;;17.63;;
56122;SDS011;42426;46.104;19.656;2023-02-21T06:34:57;30.40;;;18.25;;
56122;SDS011;42426;46.104;19.656;2023-02-21T06:37:23;31.35;;;19.05;;
56122;SDS011;42426;46.104;19.656;2023-02-21T06:39:49;34.25;;;20.02;;
56122;SDS011;42426;46.104;19.656;2023-02-21T06:42:15;39.47;;;22.52;;
56122;SDS011;42426;46.104;19.656;2023-02-21T06:44:46;36.75;;;22.10;;
56122;SDS011;42426;46.104;19.656;2023-02-21T06:47:13;39.15;;;21.65;;
56122;SDS011;42426;46.104;19.656;2023-02-21T06:49:39;36.25;;;21.92;;
56122;SDS011;42426;46.104;19.656;2023-02-21T06:52:05;36.72;;;21.30;;
56122;SDS011;42426;46.104;19.656;2023-02-21T06:54:33;36.50;;;22.05;;
56122;SDS011;42426;46.104;19.656;2023-02-21T06:56:59;44.10;;;22.77;;
56122;SDS011;42426;46.104;19.656;2023-02-21T06:59:26;40.33;;;22.83;;
56122;SDS011;42426;46.104;19.656;2023-02-21T07:01:53;40.85;;;23.23;;
56122;SDS011;42426;46.104;19.656;2023-02-21T07:04:19;39.20;;;24.77;;
56122;SDS011;42426;46.104;19.656;2023-02-21T07:06:45;36.20;;;23.08;;
56122;SDS011;42426;46.104;19.656;2023-02-21T07:09:12;40.80;;;25.27;;
56122;SDS011;42426;46.104;19.656;2023-02-21T07:11:38;47.55;;;28.80;;
56122;SDS011;42426;46.104;19.656;2023-02-21T07:14:04;46.97;;;28.05;;
56122;SDS011;42426;46.104;19.656;2023-02-21T07:16:30;51.22;;;30.92;;
56122;SDS011;42426;46.104;19.656;2023-02-21T07:18:56;49.42;;;31.58;;
56122;SDS011;42426;46.104;19.656;2023-02-21T07:21:22;41.03;;;25.02;;
56122;SDS011;42426;46.104;19.656;2023-02-21T07:23:49;35.45;;;23.23;;
56122;SDS011;42426;46.104;19.656;2023-02-21T07:26:15;35.92;;;20.90;;
56122;SDS011;42426;46.104;19.656;2023-02-21T07:28:41;26.55;;;17.85;;
56122;SDS011;42426;46.104;19.656;2023-02-21T07:31:06;27.58;;;16.90;;
56122;SDS011;42426;46.104;19.656;2023-02-21T07:33:34;23.02;;;14.80;;
56122;SDS011;42426;46.104;19.656;2023-02-21T07:36:00;29.45;;;17.90;;
56122;SDS011;42426;46.104;19.656;2023-02-21T07:38:26;35.30;;;20.42;;
56122;SDS011;42426;46.104;19.656;2023-02-21T07:40:54;39.65;;;25.45;;
56122;SDS011;42426;46.104;19.656;2023-02-21T07:43:21;38.67;;;23.05;;
56122;SDS011;42426;46.104;19.656;2023-02-21T07:45:47;31.77;;;20.02;;
56122;SDS011;42426;46.104;19.656;2023-02-21T07:48:12;51.72;;;33.42;;
56122;SDS011;42426;46.104;19.656;2023-02-21T07:50:41;45.75;;;27.42;;
56122;SDS011;42426;46.104;19.656;2023-02-21T07:53:08;67.75;;;40.67;;
56122;SDS011;42426;46.104;19.656;2023-02-21T07:55:35;33.00;;;20.08;;
56122;SDS011;42426;46.104;19.656;2023-02-21T07:58:01;29.05;;;18.67;;
56122;SDS011;42426;46.104;19.656;2023-02-21T08:00:30;28.60;;;15.98;;
56122;SDS011;42426;46.104;19.656;2023-02-21T08:02:56;24.10;;;15.90;;
56122;SDS011;42426;46.104;19.656;2023-02-21T08:05:22;23.17;;;15.40;;
56122;SDS011;42426;46.104;19.656;2023-02-21T08:07:49;31.38;;;17.23;;
56122;SDS011;42426;46.104;19.656;2023-02-21T08:10:22;36.47;;;25.98;;
56122;SDS011;42426;46.104;19.656;2023-02-21T08:12:49;68.72;;;45.78;;
56122;SDS011;42426;46.104;19.656;2023-02-21T08:15:15;34.65;;;19.30;;
56122;SDS011;42426;46.104;19.656;2023-02-21T08:17:41;26.25;;;17.17;;
56122;SDS011;42426;46.104;19.656;2023-02-21T08:20:07;28.23;;;17.95;;
56122;SDS011;42426;46.104;19.656;2023-02-21T08:22:35;26.13;;;17.58;;
56122;SDS011;42426;46.104;19.656;2023-02-21T08:25:01;26.10;;;14.93;;
56122;SDS011;42426;46.104;19.656;2023-02-21T08:27:27;27.80;;;16.00;;
56122;SDS011;42426;46.104;19.656;2023-02-21T08:29:52;29.67;;;16.95;;
56122;SDS011;42426;46.104;19.656;2023-02-21T08:32:18;24.15;;;14.85;;
56122;SDS011;42426;46.104;19.656;2023-02-21T08:34:44;33.92;;;22.05;;
56122;SDS011;42426;46.104;19.656;2023-02-21T08:37:11;26.80;;;17.27;;
56122;SDS011;42426;46.104;19.656;2023-02-21T08:39:47;46.28;;;27.42;;
56122;SDS011;42426;46.104;19.656;2023-02-21T08:42:16;29.70;;;17.77;;
56122;SDS011;42426;46.104;19.656;2023-02-21T08:44:42;49.03;;;27.80;;
56122;SDS011;42426;46.104;19.656;2023-02-21T08:47:09;38.55;;;21.67;;
56122;SDS011;42426;46.104;19.656;2023-02-21T08:49:35;23.75;;;14.95;;
56122;SDS011;42426;46.104;19.656;2023-02-21T08:52:04;22.23;;;16.17;;
56122;SDS011;42426;46.104;19.656;2023-02-21T08:54:31;28.13;;;17.75;;
56122;SDS011;42426;46.104;19.656;2023-02-21T08:56:56;28.40;;;18.85;;
56122;SDS011;42426;46.104;19.656;2023-02-21T08:59:23;34.95;;;20.55;;
56122;SDS011;42426;46.104;19.656;2023-02-21T09:01:49;32.85;;;17.95;;
56122;SDS011;42426;46.104;19.656;2023-02-21T09:04:16;31.33;;;20.15;;
56122;SDS011;42426;46.104;19.656;2023-02-21T09:06:41;26.40;;;17.65;;
56122;SDS011;42426;46.104;19.656;2023-02-21T09:09:07;21.35;;;14.98;;
56122;SDS011;42426;46.104;19.656;2023-02-21T09:11:33;21.83;;;14.13;;
56122;SDS011;42426;46.104;19.656;2023-02-21T09:13:58;22.35;;;15.68;;
56122;SDS011;42426;46.104;19.656;2023-02-21T09:16:24;20.90;;;14.68;;
56122;SDS011;42426;46.104;19.656;2023-02-21T09:18:54;19.55;;;14.88;;
56122;SDS011;42426;46.104;19.656;2023-02-21T09:21:22;21.42;;;15.55;;
56122;SDS011;42426;46.104;19.656;2023-02-21T09:23:58;22.60;;;14.98;;
56122;SDS011;42426;46.104;19.656;2023-02-21T09:26:24;19.58;;;13.43;;
56122;SDS011;42426;46.104;19.656;2023-02-21T09:28:52;19.58;;;15.38;;
56122;SDS011;42426;46.104;19.656;2023-02-21T09:31:18;20.75;;;12.52;;
56122;SDS011;42426;46.104;19.656;2023-02-21T09:33:44;17.67;;;10.20;;
56122;SDS011;42426;46.104;19.656;2023-02-21T09:36:12;18.08;;;9.15;;
56122;SDS011;42426;46.104;19.656;2023-02-21T09:38:38;12.10;;;8.80;;
56122;SDS011;42426;46.104;19.656;2023-02-21T09:41:07;15.77;;;9.10;;
56122;SDS011;42426;46.104;19.656;2023-02-21T09:43:37;13.18;;;9.07;;
56122;SDS011;42426;46.104;19.656;2023-02-21T09:48:54;14.13;;;9.40;;
56122;SDS011;42426;46.104;19.656;2023-02-21T09:51:20;13.55;;;8.40;;
56122;SDS011;42426;46.104;19.656;2023-02-21T09:53:46;15.13;;;8.35;;
56122;SDS011;42426;46.104;19.656;2023-02-21T09:56:17;14.13;;;8.65;;
56122;SDS011;42426;46.104;19.656;2023-02-21T09:58:52;10.20;;;7.43;;
56122;SDS011;42426;46.104;19.656;2023-02-21T10:04:13;11.60;;;8.45;;
56122;SDS011;42426;46.104;19.656;2023-02-21T10:06:59;19.05;;;10.25;;
56122;SDS011;42426;46.104;19.656;2023-02-21T10:12:27;14.93;;;8.05;;
56122;SDS011;42426;46.104;19.656;2023-02-21T10:20:28;12.60;;;7.72;;
56122;SDS011;42426;46.104;19.656;2023-02-21T10:23:16;12.57;;;8.85;;
56122;SDS011;42426;46.104;19.656;2023-02-21T10:25:46;11.25;;;7.63;;
56122;SDS011;42426;46.104;19.656;2023-02-21T10:28:19;13.13;;;8.85;;
56122;SDS011;42426;46.104;19.656;2023-02-21T10:30:47;12.15;;;7.88;;
56122;SDS011;42426;46.104;19.656;2023-02-21T10:33:15;12.15;;;7.25;;
56122;SDS011;42426;46.104;19.656;2023-02-21T10:35:41;9.85;;;7.40;;
56122;SDS011;42426;46.104;19.656;2023-02-21T10:38:11;9.25;;;6.47;;
56122;SDS011;42426;46.104;19.656;2023-02-21T10:46:03;10.88;;;7.35;;
56122;SDS011;42426;46.104;19.656;2023-02-21T10:48:43;9.33;;;6.83;;
56122;SDS011;42426;46.104;19.656;2023-02-21T10:51:15;10.52;;;7.00;;
56122;SDS011;42426;46.104;19.656;2023-02-21T10:53:52;11.80;;;6.75;;
56122;SDS011;42426;46.104;19.656;2023-02-21T10:56:19;24.05;;;5.30;;
56122;SDS011;42426;46.104;19.656;2023-02-21T10:58:48;8.07;;;4.40;;
56122;SDS011;42426;46.104;19.656;2023-02-21T11:01:18;8.90;;;4.13;;
56122;SDS011;42426;46.104;19.656;2023-02-21T11:06:46;9.27;;;4.43;;
56122;SDS011;42426;46.104;19.656;2023-02-21T11:09:23;11.27;;;4.50;;
56122;SDS011;42426;46.104;19.656;2023-02-21T11:14:44;5.85;;;4.28;;
56122;SDS011;42426;46.104;19.656;2023-02-21T11:17:34;7.30;;;4.93;;
56122;SDS011;42426;46.104;19.656;2023-02-21T11:22:38;11.30;;;5.47;;
56122;SDS011;42426;46.104;19.656;2023-02-21T11:33:02;9.82;;;4.22;;
56122;SDS011;42426;46.104;19.656;2023-02-21T11:35:34;11.40;;;5.55;;
56122;SDS011;42426;46.104;19.656;2023-02-21T11:40:54;6.25;;;4.25;;
56122;SDS011;42426;46.104;19.656;2023-02-21T11:43:23;9.35;;;5.10;;
56122;SDS011;42426;46.104;19.656;2023-02-21T11:51:45;7.78;;;4.93;;
56122;SDS011;42426;46.104;19.656;2023-02-21T11:54:13;6.43;;;4.40;;
56122;SDS011;42426;46.104;19.656;2023-02-21T12:04:43;6.53;;;3.90;;
56122;SDS011;42426;46.104;19.656;2023-02-21T12:13:09;7.95;;;4.47;;
56122;SDS011;42426;46.104;19.656;2023-02-21T12:23:54;6.50;;;3.75;;
56122;SDS011;42426;46.104;19.656;2023-02-21T12:26:30;8.32;;;4.85;;
56122;SDS011;42426;46.104;19.656;2023-02-21T12:29:50;10.27;;;4.38;;
56122;SDS011;42426;46.104;19.656;2023-02-21T12:38:13;6.13;;;3.47;;
56122;SDS011;42426;46.104;19.656;2023-02-21T12:40:58;11.85;;;3.72;;
56122;SDS011;42426;46.104;19.656;2023-02-21T12:51:49;9.05;;;3.72;;
56122;SDS011;42426;46.104;19.656;2023-02-21T12:54:23;7.93;;;3.15;;
56122;SDS011;42426;46.104;19.656;2023-02-21T12:57:04;4.82;;;3.45;;
56122;SDS011;42426;46.104;19.656;2023-02-21T13:05:55;6.30;;;3.15;;
56122;SDS011;42426;46.104;19.656;2023-02-21T13:11:21;6.30;;;3.60;;
56122;SDS011;42426;46.104;19.656;2023-02-21T13:13:55;6.75;;;4.93;;
56122;SDS011;42426;46.104;19.656;2023-02-21T13:16:22;9.07;;;3.92;;
56122;SDS011;42426;46.104;19.656;2023-02-21T13:18:53;7.07;;;3.67;;
56122;SDS011;42426;46.104;19.656;2023-02-21T13:24:22;4.38;;;3.70;;
56122;SDS011;42426;46.104;19.656;2023-02-21T13:29:59;12.52;;;6.32;;
56122;SDS011;42426;46.104;19.656;2023-02-21T13:32:38;18.35;;;13.13;;
56122;SDS011;42426;46.104;19.656;2023-02-21T13:35:17;5.95;;;4.03;;
56122;SDS011;42426;46.104;19.656;2023-02-21T13:37:46;14.25;;;10.60;;
56122;SDS011;42426;46.104;19.656;2023-02-21T13:40:30;9.77;;;5.22;;
56122;SDS011;42426;46.104;19.656;2023-02-21T13:43:04;17.23;;;12.80;;
56122;SDS011;42426;46.104;19.656;2023-02-21T13:45:31;10.35;;;5.15;;
56122;SDS011;42426;46.104;19.656;2023-02-21T13:55:33;9.75;;;6.88;;
56122;SDS011;42426;46.104;19.656;2023-02-21T14:19:34;10.18;;;6.18;;
56122;SDS011;42426;46.104;19.656;2023-02-21T14:24:45;13.25;;;5.85;;
56122;SDS011;42426;46.104;19.656;2023-02-21T14:29:41;13.02;;;6.10;;
56122;SDS011;42426;46.104;19.656;2023-02-21T14:48:43;13.48;;;9.77;;
56122;SDS011;42426;46.104;19.656;2023-02-21T14:51:32;12.88;;;9.02;;
56122;SDS011;42426;46.104;19.656;2023-02-21T15:00:07;9.38;;;5.13;;
56122;SDS011;42426;46.104;19.656;2023-02-21T15:05:29;5.35;;;3.92;;
56122;SDS011;42426;46.104;19.656;2023-02-21T15:08:13;6.73;;;2.97;;
56122;SDS011;42426;46.104;19.656;2023-02-21T15:10:46;10.45;;;8.05;;
56122;SDS011;42426;46.104;19.656;2023-02-21T15:13:24;16.52;;;12.55;;
56122;SDS011;42426;46.104;19.656;2023-02-21T15:18:33;16.88;;;13.18;;
56122;SDS011;42426;46.104;19.656;2023-02-21T15:23:28;17.48;;;11.38;;
56122;SDS011;42426;46.104;19.656;2023-02-21T15:25:56;16.27;;;12.10;;
56122;SDS011;42426;46.104;19.656;2023-02-21T15:28:24;22.50;;;15.40;;
56122;SDS011;42426;46.104;19.656;2023-02-21T15:31:05;12.98;;;9.98;;
56122;SDS011;42426;46.104;19.656;2023-02-21T15:33:33;31.75;;;21.15;;
56122;SDS011;42426;46.104;19.656;2023-02-21T15:44:19;26.15;;;17.58;;
56122;SDS011;42426;46.104;19.656;2023-02-21T15:46:57;18.55;;;12.15;;
56122;SDS011;42426;46.104;19.656;2023-02-21T15:49:42;19.45;;;11.85;;
56122;SDS011;42426;46.104;19.656;2023-02-21T15:52:34;20.58;;;13.50;;
56122;SDS011;42426;46.104;19.656;2023-02-21T15:55:15;22.20;;;16.02;;
56122;SDS011;42426;46.104;19.656;2023-02-21T16:11:48;34.33;;;20.50;;
56122;SDS011;42426;46.104;19.656;2023-02-21T16:14:17;31.58;;;21.42;;
56122;SDS011;42426;46.104;19.656;2023-02-21T16:19:42;55.13;;;36.40;;
56122;SDS011;42426;46.104;19.656;2023-02-21T16:25:03;72.47;;;41.97;;
56122;SDS011;42426;46.104;19.656;2023-02-21T16:27:30;69.40;;;45.42;;
56122;SDS011;42426;46.104;19.656;2023-02-21T16:29:56;68.88;;;41.08;;
56122;SDS011;42426;46.104;19.656;2023-02-21T16:32:22;63.75;;;42.60;;
56122;SDS011;42426;46.104;19.656;2023-02-21T16:34:49;56.20;;;37.67;;
56122;SDS011;42426;46.104;19.656;2023-02-21T16:37:18;49.90;;;33.38;;
56122;SDS011;42426;46.104;19.656;2023-02-21T16:39:45;45.13;;;28.88;;
56122;SDS011;42426;46.104;19.656;2023-02-21T16:42:11;42.78;;;28.20;;
56122;SDS011;42426;46.104;19.656;2023-02-21T16:44:37;47.97;;;29.38;;
56122;SDS011;42426;46.104;19.656;2023-02-21T16:47:03;43.60;;;28.10;;
56122;SDS011;42426;46.104;19.656;2023-02-21T16:49:31;58.55;;;32.28;;
56122;SDS011;42426;46.104;19.656;2023-02-21T16:51:56;57.65;;;30.92;;
56122;SDS011;42426;46.104;19.656;2023-02-21T16:54:22;46.80;;;27.90;;
56122;SDS011;42426;46.104;19.656;2023-02-21T16:56:49;36.60;;;24.15;;
56122;SDS011;42426;46.104;19.656;2023-02-21T16:59:17;41.78;;;21.73;;
56122;SDS011;42426;46.104;19.656;2023-02-21T17:01:45;37.85;;;23.00;;
56122;SDS011;42426;46.104;19.656;2023-02-21T17:04:19;34.30;;;20.15;;
56122;SDS011;42426;46.104;19.656;2023-02-21T17:07:06;36.22;;;21.17;;
56122;SDS011;42426;46.104;19.656;2023-02-21T17:09:35;34.17;;;20.33;;
56122;SDS011;42426;46.104;19.656;2023-02-21T17:12:05;31.98;;;18.55;;
56122;SDS011;42426;46.104;19.656;2023-02-21T17:14:31;32.35;;;18.02;;
56122;SDS011;42426;46.104;19.656;2023-02-21T17:16:58;35.22;;;20.00;;
56122;SDS011;42426;46.104;19.656;2023-02-21T17:19:24;28.80;;;16.17;;
56122;SDS011;42426;46.104;19.656;2023-02-21T17:21:50;25.90;;;15.38;;
56122;SDS011;42426;46.104;19.656;2023-02-21T17:24:16;23.58;;;15.70;;
56122;SDS011;42426;46.104;19.656;2023-02-21T17:26:43;34.67;;;20.38;;
56122;SDS011;42426;46.104;19.656;2023-02-21T17:29:09;26.42;;;16.58;;
56122;SDS011;42426;46.104;19.656;2023-02-21T17:31:36;28.00;;;18.33;;
56122;SDS011;42426;46.104;19.656;2023-02-21T17:34:02;32.55;;;19.52;;
56122;SDS011;42426;46.104;19.656;2023-02-21T17:36:28;35.05;;;20.10;;
56122;SDS011;42426;46.104;19.656;2023-02-21T17:38:54;30.45;;;18.38;;
56122;SDS011;42426;46.104;19.656;2023-02-21T17:41:21;30.95;;;18.65;;
56122;SDS011;42426;46.104;19.656;2023-02-21T17:43:47;27.33;;;16.90;;
56122;SDS011;42426;46.104;19.656;2023-02-21T17:46:15;26.70;;;15.02;;
56122;SDS011;42426;46.104;19.656;2023-02-21T17:48:42;30.13;;;17.05;;
56122;SDS011;42426;46.104;19.656;2023-02-21T17:51:09;29.75;;;14.85;;
56122;SDS011;42426;46.104;19.656;2023-02-21T17:53:41;30.55;;;16.55;;
56122;SDS011;42426;46.104;19.656;2023-02-21T17:56:07;25.67;;;16.42;;
56122;SDS011;42426;46.104;19.656;2023-02-21T17:58:32;28.15;;;17.83;;
56122;SDS011;42426;46.104;19.656;2023-02-21T18:00:58;28.02;;;16.52;;
56122;SDS011;42426;46.104;19.656;2023-02-21T18:03:24;24.50;;;14.30;;
56122;SDS011;42426;46.104;19.656;2023-02-21T18:05:50;27.30;;;16.50;;
56122;SDS011;42426;46.104;19.656;2023-02-21T18:08:16;20.88;;;13.63;;
56122;SDS011;42426;46.104;19.656;2023-02-21T18:10:42;21.77;;;12.20;;
56122;SDS011;42426;46.104;19.656;2023-02-21T18:13:20;23.30;;;11.63;;
56122;SDS011;42426;46.104;19.656;2023-02-21T18:15:46;17.25;;;10.57;;
56122;SDS011;42426;46.104;19.656;2023-02-21T18:18:12;17.90;;;11.18;;
56122;SDS011;42426;46.104;19.656;2023-02-21T18:20:38;16.25;;;10.40;;
56122;SDS011;42426;46.104;19.656;2023-02-21T18:23:04;15.85;;;10.40;;
56122;SDS011;42426;46.104;19.656;2023-02-21T18:25:31;17.90;;;9.77;;